sensor_id;sensor_type;location;lat;lon;timestamp;pressure;altitude;pressure_sealevel;temperature;humidity
64792;BME280;51226;47.504;19.074;2022-12-24T00:00:56;99699.44;;;5.68;97.74
64792;BME280;51226;47.504;19.074;2022-12-24T00:04:00;99702.59;;;5.81;97.25
64792;BME280;51226;47.504;19.074;2022-12-24T00:07:02;99701.09;;;5.86;97.02
64792;BME280;51226;47.504;19.074;2022-12-24T00:10:06;99702.75;;;5.84;96.69
64792;BME280;51226;47.504;19.074;2022-12-24T00:13:09;99700.94;;;5.83;96.53
64792;BME280;51226;47.504;19.074;2022-12-24T00:16:12;99704.97;;;5.76;96.72
64792;BME280;51226;47.504;19.074;2022-12-24T00:19:15;99694.47;;;5.73;96.87
64792;BME280;51226;47.504;19.074;2022-12-24T00:22:18;99696.19;;;5.72;96.96
64792;BME280;51226;47.504;19.074;2022-12-24T00:25:20;99706.53;;;5.72;97.14
64792;BME280;51226;47.504;19.074;2022-12-24T00:28:24;99701.34;;;5.72;97.35
64792;BME280;51226;47.504;19.074;2022-12-24T00:31:26;99691.88;;;5.73;97.61
64792;BME280;51226;47.504;19.074;2022-12-24T00:34:30;99691.84;;;5.71;97.71
64792;BME280;51226;47.504;19.074;2022-12-24T00:37:32;99693.59;;;5.72;97.78
64792;BME280;51226;47.504;19.074;2022-12-24T00:40:35;99703.94;;;5.72;97.88
64792;BME280;51226;47.504;19.074;2022-12-24T00:43:38;99703.28;;;5.77;97.66
64792;BME280;51226;47.504;19.074;2022-12-24T00:46:41;99706.13;;;5.83;97.50
64792;BME280;51226;47.504;19.074;2022-12-24T00:49:44;99724.25;;;5.83;97.32
64792;BME280;51226;47.504;19.074;2022-12-24T00:52:47;99755.22;;;5.81;97.30
64792;BME280;51226;47.504;19.074;2022-12-24T00:55:50;99754.28;;;5.79;97.30
64792;BME280;51226;47.504;19.074;2022-12-24T00:58:53;99738.44;;;5.91;96.76
64792;BME280;51226;47.504;19.074;2022-12-24T01:01:56;99747.53;;;5.83;96.91
64792;BME280;51226;47.504;19.074;2022-12-24T01:04:59;99739.34;;;5.91;96.96
64792;BME280;51226;47.504;19.074;2022-12-24T01:08:11;99720.84;;;5.84;96.94
64792;BME280;51226;47.504;19.074;2022-12-24T01:11:15;99712.78;;;5.78;97.29
64792;BME280;51226;47.504;19.074;2022-12-24T01:14:18;99686.94;;;5.78;97.44
64792;BME280;51226;47.504;19.074;2022-12-24T01:17:21;99681.75;;;5.78;97.56
64792;BME280;51226;47.504;19.074;2022-12-24T01:20:24;99670.59;;;5.79;97.80
64792;BME280;51226;47.504;19.074;2022-12-24T01:23:29;99657.66;;;5.79;97.73
64792;BME280;51226;47.504;19.074;2022-12-24T01:26:32;99656.81;;;5.80;97.80
64792;BME280;51226;47.504;19.074;2022-12-24T01:29:35;99662.75;;;5.77;97.82
64792;BME280;51226;47.504;19.074;2022-12-24T01:32:38;99660.09;;;5.75;97.75
64792;BME280;51226;47.504;19.074;2022-12-24T01:35:42;99642.13;;;5.79;97.56
64792;BME280;51226;47.504;19.074;2022-12-24T01:38:45;99640.34;;;5.78;97.63
64792;BME280;51226;47.504;19.074;2022-12-24T01:41:48;99626.63;;;5.79;97.54
64792;BME280;51226;47.504;19.074;2022-12-24T01:45:39;99623.16;;;5.78;97.50
64792;BME280;51226;47.504;19.074;2022-12-24T01:48:46;99649.75;;;5.75;97.75
64792;BME280;51226;47.504;19.074;2022-12-24T01:51:55;99652.69;;;5.83;97.74
64792;BME280;51226;47.504;19.074;2022-12-24T01:55:05;99640.34;;;5.78;97.86
64792;BME280;51226;47.504;19.074;2022-12-24T01:58:10;99658.59;;;5.81;97.87
64792;BME280;51226;47.504;19.074;2022-12-24T02:01:14;99658.06;;;5.88;97.76
64792;BME280;51226;47.504;19.074;2022-12-24T02:04:33;99650.06;;;6.01;96.30
64792;BME280;51226;47.504;19.074;2022-12-24T02:07:38;99660.31;;;5.98;96.66
64792;BME280;51226;47.504;19.074;2022-12-24T02:10:44;99634.69;;;5.86;96.96
64792;BME280;51226;47.504;19.074;2022-12-24T02:13:50;99652.28;;;5.74;98.17
64792;BME280;51226;47.504;19.074;2022-12-24T02:17:16;99650.69;;;5.78;98.27
64792;BME280;51226;47.504;19.074;2022-12-24T02:20:51;99660.78;;;5.71;98.86
64792;BME280;51226;47.504;19.074;2022-12-24T02:27:44;99667.44;;;5.66;99.41
64792;BME280;51226;47.504;19.074;2022-12-24T02:30:56;99681.59;;;5.74;99.00
64792;BME280;51226;47.504;19.074;2022-12-24T02:40:27;99669.75;;;5.80;98.57
64792;BME280;51226;47.504;19.074;2022-12-24T02:43:34;99667.25;;;5.81;100.00
64792;BME280;51226;47.504;19.074;2022-12-24T02:46:37;99659.09;;;5.72;100.00
64792;BME280;51226;47.504;19.074;2022-12-24T02:49:43;99667.56;;;5.69;100.00
64792;BME280;51226;47.504;19.074;2022-12-24T02:52:47;99655.28;;;5.83;100.00
64792;BME280;51226;47.504;19.074;2022-12-24T03:02:42;99654.19;;;5.78;100.00
64792;BME280;51226;47.504;19.074;2022-12-24T03:06:29;99675.84;;;5.80;100.00
64792;BME280;51226;47.504;19.074;2022-12-24T03:13:05;99673.72;;;5.91;100.00
64792;BME280;51226;47.504;19.074;2022-12-24T03:16:14;99697.84;;;5.90;100.00
64792;BME280;51226;47.504;19.074;2022-12-24T03:19:19;99711.44;;;5.86;100.00
64792;BME280;51226;47.504;19.074;2022-12-24T03:22:24;99685.44;;;5.83;100.00
64792;BME280;51226;47.504;19.074;2022-12-24T03:25:28;99678.50;;;5.82;100.00
64792;BME280;51226;47.504;19.074;2022-12-24T03:28:32;99667.47;;;5.86;100.00
64792;BME280;51226;47.504;19.074;2022-12-24T03:31:47;99656.38;;;5.88;100.00
64792;BME280;51226;47.504;19.074;2022-12-24T03:34:50;99656.44;;;5.90;100.00
64792;BME280;51226;47.504;19.074;2022-12-24T03:37:53;99643.63;;;5.93;100.00
64792;BME280;51226;47.504;19.074;2022-12-24T03:40:56;99654.22;;;5.98;100.00
64792;BME280;51226;47.504;19.074;2022-12-24T03:43:59;99653.47;;;6.00;100.00
64792;BME280;51226;47.504;19.074;2022-12-24T03:47:02;99660.41;;;6.01;100.00
64792;BME280;51226;47.504;19.074;2022-12-24T03:50:06;99666.56;;;6.03;100.00
64792;BME280;51226;47.504;19.074;2022-12-24T03:53:09;99666.34;;;6.18;100.00
64792;BME280;51226;47.504;19.074;2022-12-24T03:56:12;99682.13;;;6.44;98.30
64792;BME280;51226;47.504;19.074;2022-12-24T03:59:15;99694.13;;;6.42;97.99
64792;BME280;51226;47.504;19.074;2022-12-24T04:02:18;99685.81;;;6.29;98.84
64792;BME280;51226;47.504;19.074;2022-12-24T04:05:21;99698.34;;;6.40;98.56
64792;BME280;51226;47.504;19.074;2022-12-24T04:08:24;99687.66;;;6.32;98.87
64792;BME280;51226;47.504;19.074;2022-12-24T04:11:27;99678.03;;;6.29;99.12
64792;BME280;51226;47.504;19.074;2022-12-24T04:14:30;99690.19;;;6.30;99.20
64792;BME280;51226;47.504;19.074;2022-12-24T04:17:33;99689.56;;;6.36;99.14
64792;BME280;51226;47.504;19.074;2022-12-24T04:20:36;99695.22;;;6.47;98.23
64792;BME280;51226;47.504;19.074;2022-12-24T04:23:40;99699.25;;;6.40;98.55
64792;BME280;51226;47.504;19.074;2022-12-24T04:26:43;99702.72;;;6.41;98.53
64792;BME280;51226;47.504;19.074;2022-12-24T04:29:46;99704.78;;;6.69;97.51
64792;BME280;51226;47.504;19.074;2022-12-24T04:32:49;99704.28;;;6.57;98.09
64792;BME280;51226;47.504;19.074;2022-12-24T04:35:52;99703.19;;;6.52;98.39
64792;BME280;51226;47.504;19.074;2022-12-24T04:38:56;99696.97;;;6.48;98.52
64792;BME280;51226;47.504;19.074;2022-12-24T04:41:58;99690.91;;;6.47;98.55
64792;BME280;51226;47.504;19.074;2022-12-24T04:45:01;99695.16;;;6.45;98.64
64792;BME280;51226;47.504;19.074;2022-12-24T04:48:04;99697.72;;;6.45;98.67
64792;BME280;51226;47.504;19.074;2022-12-24T04:51:08;99688.09;;;6.43;98.84
64792;BME280;51226;47.504;19.074;2022-12-24T04:54:11;99689.09;;;6.45;99.00
64792;BME280;51226;47.504;19.074;2022-12-24T04:57:14;99686.66;;;6.49;98.98
64792;BME280;51226;47.504;19.074;2022-12-24T05:00:17;99698.03;;;6.53;98.80
64792;BME280;51226;47.504;19.074;2022-12-24T05:03:21;99704.19;;;6.55;98.55
64792;BME280;51226;47.504;19.074;2022-12-24T05:06:28;99719.81;;;6.57;98.41
64792;BME280;51226;47.504;19.074;2022-12-24T05:09:31;99705.22;;;6.59;98.36
64792;BME280;51226;47.504;19.074;2022-12-24T05:12:34;99708.75;;;6.61;98.23
64792;BME280;51226;47.504;19.074;2022-12-24T05:15:37;99707.16;;;6.64;98.03
64792;BME280;51226;47.504;19.074;2022-12-24T05:18:40;99721.06;;;6.66;97.85
64792;BME280;51226;47.504;19.074;2022-12-24T05:21:43;99711.75;;;6.70;97.75
64792;BME280;51226;47.504;19.074;2022-12-24T05:24:45;99711.03;;;6.74;97.67
64792;BME280;51226;47.504;19.074;2022-12-24T05:28:07;99719.97;;;6.81;97.28
64792;BME280;51226;47.504;19.074;2022-12-24T05:31:10;99718.37;;;6.84;97.24
64792;BME280;51226;47.504;19.074;2022-12-24T05:34:14;99721.88;;;6.85;97.00
64792;BME280;51226;47.504;19.074;2022-12-24T05:37:17;99724.50;;;6.86;96.87
64792;BME280;51226;47.504;19.074;2022-12-24T05:40:20;99735.78;;;6.87;96.85
64792;BME280;51226;47.504;19.074;2022-12-24T05:43:23;99737.47;;;6.86;96.73
64792;BME280;51226;47.504;19.074;2022-12-24T05:46:26;99733.19;;;6.87;96.63
64792;BME280;51226;47.504;19.074;2022-12-24T05:49:29;99727.94;;;6.85;96.70
64792;BME280;51226;47.504;19.074;2022-12-24T05:52:32;99743.56;;;6.87;96.79
64792;BME280;51226;47.504;19.074;2022-12-24T05:55:35;99727.22;;;6.90;96.73
64792;BME280;51226;47.504;19.074;2022-12-24T05:58:39;99729.00;;;6.91;96.68
64792;BME280;51226;47.504;19.074;2022-12-24T06:01:42;99735.06;;;6.91;96.52
64792;BME280;51226;47.504;19.074;2022-12-24T06:04:49;99728.13;;;6.90;96.54
64792;BME280;51226;47.504;19.074;2022-12-24T06:07:51;99742.03;;;6.92;96.62
64792;BME280;51226;47.504;19.074;2022-12-24T06:10:59;99732.53;;;6.93;96.58
64792;BME280;51226;47.504;19.074;2022-12-24T06:14:02;99724.63;;;6.90;96.54
64792;BME280;51226;47.504;19.074;2022-12-24T06:17:05;99728.06;;;6.89;96.48
64792;BME280;51226;47.504;19.074;2022-12-24T06:20:08;99729.69;;;6.86;96.52
64792;BME280;51226;47.504;19.074;2022-12-24T06:23:12;99739.03;;;6.83;96.73
64792;BME280;51226;47.504;19.074;2022-12-24T06:26:17;99745.94;;;6.82;96.76
64792;BME280;51226;47.504;19.074;2022-12-24T06:29:21;99742.09;;;6.94;96.09
64792;BME280;51226;47.504;19.074;2022-12-24T06:32:23;99742.09;;;6.94;96.29
64792;BME280;51226;47.504;19.074;2022-12-24T06:35:26;99752.69;;;6.98;95.86
64792;BME280;51226;47.504;19.074;2022-12-24T06:38:29;99745.50;;;6.93;96.14
64792;BME280;51226;47.504;19.074;2022-12-24T06:41:36;99742.03;;;6.92;96.31
64792;BME280;51226;47.504;19.074;2022-12-24T06:44:39;99760.91;;;6.90;96.47
64792;BME280;51226;47.504;19.074;2022-12-24T06:47:46;99763.38;;;6.86;96.70
64792;BME280;51226;47.504;19.074;2022-12-24T06:50:48;99766.09;;;6.90;96.89
64792;BME280;51226;47.504;19.074;2022-12-24T06:53:52;99775.62;;;7.10;96.27
64792;BME280;51226;47.504;19.074;2022-12-24T06:56:55;99788.78;;;7.36;95.75
64792;BME280;51226;47.504;19.074;2022-12-24T06:59:59;99787.19;;;7.83;94.27
64792;BME280;51226;47.504;19.074;2022-12-24T07:03:02;99782.34;;;8.15;91.96
64792;BME280;51226;47.504;19.074;2022-12-24T07:06:06;99792.75;;;8.38;90.45
64792;BME280;51226;47.504;19.074;2022-12-24T07:09:12;99783.97;;;8.58;88.64
64792;BME280;51226;47.504;19.074;2022-12-24T07:12:15;99782.50;;;8.65;87.95
64792;BME280;51226;47.504;19.074;2022-12-24T07:15:18;99791.62;;;8.78;86.85
64792;BME280;51226;47.504;19.074;2022-12-24T07:18:21;99804.72;;;8.81;86.64
64792;BME280;51226;47.504;19.074;2022-12-24T07:21:24;99785.91;;;8.88;86.18
64792;BME280;51226;47.504;19.074;2022-12-24T07:24:27;99782.59;;;8.92;85.96
64792;BME280;51226;47.504;19.074;2022-12-24T07:27:29;99782.38;;;8.86;86.38
64792;BME280;51226;47.504;19.074;2022-12-24T07:30:32;99784.81;;;8.81;86.70
64792;BME280;51226;47.504;19.074;2022-12-24T07:33:35;99783.41;;;8.65;87.86
64792;BME280;51226;47.504;19.074;2022-12-24T07:36:38;99803.72;;;8.53;88.89
64792;BME280;51226;47.504;19.074;2022-12-24T07:39:41;99823.47;;;8.48;89.26
64792;BME280;51226;47.504;19.074;2022-12-24T07:42:44;99829.88;;;8.35;89.74
64792;BME280;51226;47.504;19.074;2022-12-24T07:45:47;99831.34;;;8.28;90.16
64792;BME280;51226;47.504;19.074;2022-12-24T07:48:50;99827.75;;;8.25;90.41
64792;BME280;51226;47.504;19.074;2022-12-24T07:51:53;99846.72;;;8.22;90.74
64792;BME280;51226;47.504;19.074;2022-12-24T07:54:56;99860.59;;;8.23;90.84
64792;BME280;51226;47.504;19.074;2022-12-24T07:57:58;99860.59;;;8.23;90.95
64792;BME280;51226;47.504;19.074;2022-12-24T08:01:02;99864.19;;;8.26;90.93
64792;BME280;51226;47.504;19.074;2022-12-24T08:04:05;99856.50;;;8.29;90.88
64792;BME280;51226;47.504;19.074;2022-12-24T08:07:08;99866.19;;;8.33;90.82
64792;BME280;51226;47.504;19.074;2022-12-24T08:10:10;99862.16;;;8.42;90.25
64792;BME280;51226;47.504;19.074;2022-12-24T08:13:13;99875.38;;;8.46;89.99
64792;BME280;51226;47.504;19.074;2022-12-24T08:16:16;99869.44;;;8.49;90.11
64792;BME280;51226;47.504;19.074;2022-12-24T08:19:19;99887.75;;;8.53;89.92
64792;BME280;51226;47.504;19.074;2022-12-24T08:22:22;99894.19;;;8.86;87.95
64792;BME280;51226;47.504;19.074;2022-12-24T08:25:25;99893.41;;;9.13;85.79
64792;BME280;51226;47.504;19.074;2022-12-24T08:28:28;99905.19;;;9.03;86.37
64792;BME280;51226;47.504;19.074;2022-12-24T08:31:31;99897.94;;;9.42;84.00
64792;BME280;51226;47.504;19.074;2022-12-24T08:34:39;99911.81;;;9.17;85.85
64792;BME280;51226;47.504;19.074;2022-12-24T08:37:42;99920.00;;;9.04;86.95
64792;BME280;51226;47.504;19.074;2022-12-24T08:40:46;99932.75;;;8.98;87.67
64792;BME280;51226;47.504;19.074;2022-12-24T08:43:51;99948.25;;;8.95;88.10
64792;BME280;51226;47.504;19.074;2022-12-24T08:46:54;99951.66;;;8.94;88.45
64792;BME280;51226;47.504;19.074;2022-12-24T08:49:57;99949.13;;;8.95;88.49
64792;BME280;51226;47.504;19.074;2022-12-24T08:53:00;99963.19;;;9.00;88.53
64792;BME280;51226;47.504;19.074;2022-12-24T08:56:04;99953.50;;;9.19;87.61
64792;BME280;51226;47.504;19.074;2022-12-24T08:59:09;99951.91;;;9.48;85.54
64792;BME280;51226;47.504;19.074;2022-12-24T09:02:12;99963.97;;;9.96;82.59
64792;BME280;51226;47.504;19.074;2022-12-24T09:05:15;99955.47;;;10.01;82.08
64792;BME280;51226;47.504;19.074;2022-12-24T09:08:19;99953.69;;;9.75;83.90
64792;BME280;51226;47.504;19.074;2022-12-24T09:11:23;99952.94;;;9.77;84.39
64792;BME280;51226;47.504;19.074;2022-12-24T09:14:25;99948.28;;;9.94;83.35
64792;BME280;51226;47.504;19.074;2022-12-24T09:17:28;99958.31;;;10.35;80.78
64792;BME280;51226;47.504;19.074;2022-12-24T09:20:31;99962.44;;;10.55;80.08
64792;BME280;51226;47.504;19.074;2022-12-24T09:23:35;99977.72;;;10.72;78.92
64792;BME280;51226;47.504;19.074;2022-12-24T09:26:41;99985.50;;;10.70;79.75
64792;BME280;51226;47.504;19.074;2022-12-24T09:29:44;99974.28;;;10.73;80.83
64792;BME280;51226;47.504;19.074;2022-12-24T09:32:50;99982.94;;;10.72;81.24
64792;BME280;51226;47.504;19.074;2022-12-24T09:35:53;99988.34;;;10.78;81.38
64792;BME280;51226;47.504;19.074;2022-12-24T09:38:55;99991.97;;;11.12;77.06
64792;BME280;51226;47.504;19.074;2022-12-24T09:42:41;99981.59;;;11.15;77.51
64792;BME280;51226;47.504;19.074;2022-12-24T09:46:00;99983.78;;;11.30;77.42
64792;BME280;51226;47.504;19.074;2022-12-24T09:49:13;99978.66;;;11.97;71.94
64792;BME280;51226;47.504;19.074;2022-12-24T09:52:27;99982.38;;;12.07;71.76
64792;BME280;51226;47.504;19.074;2022-12-24T09:55:45;99979.44;;;12.29;70.21
64792;BME280;51226;47.504;19.074;2022-12-24T09:58:57;99981.06;;;12.24;70.22
64792;BME280;51226;47.504;19.074;2022-12-24T10:02:01;99983.38;;;12.12;70.97
64792;BME280;51226;47.504;19.074;2022-12-24T10:05:12;99981.50;;;12.08;70.33
64792;BME280;51226;47.504;19.074;2022-12-24T10:22:10;99984.59;;;11.91;73.69
64792;BME280;51226;47.504;19.074;2022-12-24T10:35:19;99997.34;;;12.87;68.19
64792;BME280;51226;47.504;19.074;2022-12-24T10:38:24;100001.25;;;13.06;67.23
64792;BME280;51226;47.504;19.074;2022-12-24T10:41:28;100000.56;;;13.14;66.35
64792;BME280;51226;47.504;19.074;2022-12-24T10:44:33;100004.13;;;13.16;65.95
64792;BME280;51226;47.504;19.074;2022-12-24T10:47:38;100001.28;;;13.07;65.85
64792;BME280;51226;47.504;19.074;2022-12-24T10:50:52;100005.47;;;12.99;66.03
64792;BME280;51226;47.504;19.074;2022-12-24T10:54:00;100010.13;;;13.12;64.84
64792;BME280;51226;47.504;19.074;2022-12-24T10:57:22;99996.88;;;13.06;65.25
64792;BME280;51226;47.504;19.074;2022-12-24T11:00:27;100007.41;;;13.08;64.66
64792;BME280;51226;47.504;19.074;2022-12-24T11:03:38;100010.78;;;13.02;66.69
64792;BME280;51226;47.504;19.074;2022-12-24T11:06:52;100020.81;;;13.22;63.73
64792;BME280;51226;47.504;19.074;2022-12-24T11:10:02;100013.19;;;13.32;63.79
64792;BME280;51226;47.504;19.074;2022-12-24T11:13:26;100016.50;;;13.25;64.19
64792;BME280;51226;47.504;19.074;2022-12-24T11:16:48;100018.50;;;13.36;63.13
64792;BME280;51226;47.504;19.074;2022-12-24T11:19:51;100024.16;;;13.56;61.00
64792;BME280;51226;47.504;19.074;2022-12-24T11:22:55;100026.97;;;13.65;60.80
64792;BME280;51226;47.504;19.074;2022-12-24T11:25:59;100039.12;;;13.63;61.45
64792;BME280;51226;47.504;19.074;2022-12-24T11:32:18;100032.00;;;14.01;57.47
64792;BME280;51226;47.504;19.074;2022-12-24T11:35:23;100046.69;;;13.92;58.10
64792;BME280;51226;47.504;19.074;2022-12-24T11:38:27;100052.03;;;13.98;56.20
64792;BME280;51226;47.504;19.074;2022-12-24T11:41:36;100057.28;;;13.98;56.24
64792;BME280;51226;47.504;19.074;2022-12-24T11:44:46;100058.25;;;14.03;54.29
64792;BME280;51226;47.504;19.074;2022-12-24T11:47:51;100042.38;;;13.95;55.36
64792;BME280;51226;47.504;19.074;2022-12-24T11:51:02;100047.44;;;13.86;54.51
64792;BME280;51226;47.504;19.074;2022-12-24T11:54:27;100049.97;;;13.81;54.88
64792;BME280;51226;47.504;19.074;2022-12-24T11:57:41;100038.47;;;13.75;54.91
64792;BME280;51226;47.504;19.074;2022-12-24T12:00:47;100052.19;;;13.61;55.29
64792;BME280;51226;47.504;19.074;2022-12-24T12:04:05;100046.81;;;13.53;55.24
64792;BME280;51226;47.504;19.074;2022-12-24T12:07:17;100049.12;;;13.40;55.78
64792;BME280;51226;47.504;19.074;2022-12-24T12:10:25;100058.78;;;13.41;56.18
64792;BME280;51226;47.504;19.074;2022-12-24T12:13:31;100067.41;;;13.35;55.73
64792;BME280;51226;47.504;19.074;2022-12-24T12:17:02;100059.53;;;13.35;55.59
64792;BME280;51226;47.504;19.074;2022-12-24T12:23:34;100059.47;;;13.32;55.76
64792;BME280;51226;47.504;19.074;2022-12-24T12:26:40;100064.63;;;13.30;55.45
64792;BME280;51226;47.504;19.074;2022-12-24T12:29:58;100078.28;;;13.15;57.70
64792;BME280;51226;47.504;19.074;2022-12-24T12:33:18;100071.31;;;13.18;55.78
64792;BME280;51226;47.504;19.074;2022-12-24T12:36:38;100073.94;;;13.18;56.04
64792;BME280;51226;47.504;19.074;2022-12-24T12:39:45;100097.16;;;13.02;55.76
64792;BME280;51226;47.504;19.074;2022-12-24T12:43:00;100097.28;;;13.07;54.69
64792;BME280;51226;47.504;19.074;2022-12-24T12:55:59;100111.69;;;12.89;55.10
64792;BME280;51226;47.504;19.074;2022-12-24T12:59:26;100129.94;;;12.86;55.36
64792;BME280;51226;47.504;19.074;2022-12-24T13:02:44;100121.63;;;12.68;56.82
64792;BME280;51226;47.504;19.074;2022-12-24T13:15:49;100130.75;;;12.49;58.04
64792;BME280;51226;47.504;19.074;2022-12-24T13:22:17;100131.84;;;12.57;57.61
64792;BME280;51226;47.504;19.074;2022-12-24T13:25:28;100133.84;;;12.67;57.33
64792;BME280;51226;47.504;19.074;2022-12-24T13:28:34;100134.44;;;12.57;58.04
64792;BME280;51226;47.504;19.074;2022-12-24T13:31:38;100146.13;;;12.36;59.24
64792;BME280;51226;47.504;19.074;2022-12-24T13:34:47;100149.41;;;12.29;59.87
64792;BME280;51226;47.504;19.074;2022-12-24T13:37:50;100153.75;;;12.29;59.52
64792;BME280;51226;47.504;19.074;2022-12-24T13:40:54;100160.31;;;12.14;60.98
64792;BME280;51226;47.504;19.074;2022-12-24T13:47:17;100160.91;;;12.36;59.58
64792;BME280;51226;47.504;19.074;2022-12-24T13:50:51;100173.63;;;12.22;60.90
64792;BME280;51226;47.504;19.074;2022-12-24T13:53:58;100168.97;;;12.12;60.50
64792;BME280;51226;47.504;19.074;2022-12-24T14:00:31;100174.75;;;12.00;60.50
64792;BME280;51226;47.504;19.074;2022-12-24T14:06:48;100182.06;;;11.83;62.14
64792;BME280;51226;47.504;19.074;2022-12-24T14:09:51;100184.69;;;11.83;61.54
64792;BME280;51226;47.504;19.074;2022-12-24T14:12:54;100181.53;;;11.66;63.94
64792;BME280;51226;47.504;19.074;2022-12-24T14:16:00;100188.34;;;11.61;62.59
64792;BME280;51226;47.504;19.074;2022-12-24T14:19:25;100190.50;;;11.45;63.94
64792;BME280;51226;47.504;19.074;2022-12-24T14:22:44;100202.25;;;11.31;65.89
64792;BME280;51226;47.504;19.074;2022-12-24T14:25:47;100207.88;;;11.16;66.95
64792;BME280;51226;47.504;19.074;2022-12-24T14:29:01;100205.59;;;11.27;64.52
64792;BME280;51226;47.504;19.074;2022-12-24T14:32:13;100208.19;;;11.27;65.12
64792;BME280;51226;47.504;19.074;2022-12-24T14:35:36;100213.91;;;11.15;66.86
64792;BME280;51226;47.504;19.074;2022-12-24T14:38:41;100213.25;;;11.22;64.99
64792;BME280;51226;47.504;19.074;2022-12-24T14:41:52;100232.06;;;11.12;65.84
64792;BME280;51226;47.504;19.074;2022-12-24T14:45:06;100243.81;;;10.99;67.99
64792;BME280;51226;47.504;19.074;2022-12-24T14:56:08;100251.19;;;10.85;68.59
64792;BME280;51226;47.504;19.074;2022-12-24T14:59:19;100267.13;;;10.69;69.96
64792;BME280;51226;47.504;19.074;2022-12-24T15:02:48;100268.47;;;10.57;70.06
64792;BME280;51226;47.504;19.074;2022-12-24T15:05:55;100271.63;;;10.49;70.69
64792;BME280;51226;47.504;19.074;2022-12-24T15:09:02;100280.19;;;10.45;71.05
64792;BME280;51226;47.504;19.074;2022-12-24T15:12:10;100272.78;;;10.33;71.65
64792;BME280;51226;47.504;19.074;2022-12-24T15:15:16;100281.22;;;10.27;70.66
64792;BME280;51226;47.504;19.074;2022-12-24T15:18:25;100282.78;;;10.22;71.74
64792;BME280;51226;47.504;19.074;2022-12-24T15:21:32;100283.44;;;10.16;71.16
64792;BME280;51226;47.504;19.074;2022-12-24T15:24:43;100288.47;;;10.12;71.80
64792;BME280;51226;47.504;19.074;2022-12-24T15:27:48;100297.19;;;10.12;71.91
64792;BME280;51226;47.504;19.074;2022-12-24T15:31:13;100295.09;;;10.04;73.19
64792;BME280;51226;47.504;19.074;2022-12-24T15:34:35;100306.88;;;9.94;74.14
64792;BME280;51226;47.504;19.074;2022-12-24T15:37:40;100300.19;;;10.00;71.82
64792;BME280;51226;47.504;19.074;2022-12-24T15:40:47;100311.41;;;9.98;72.67
64792;BME280;51226;47.504;19.074;2022-12-24T15:43:51;100312.69;;;9.87;73.32
64792;BME280;51226;47.504;19.074;2022-12-24T15:46:59;100309.81;;;9.80;73.13
64792;BME280;51226;47.504;19.074;2022-12-24T15:50:12;100311.09;;;9.90;71.73
64792;BME280;51226;47.504;19.074;2022-12-24T15:53:25;100315.53;;;9.93;72.23
64792;BME280;51226;47.504;19.074;2022-12-24T15:56:40;100312.75;;;9.88;73.44
64792;BME280;51226;47.504;19.074;2022-12-24T15:59:51;100318.50;;;9.79;74.15
64792;BME280;51226;47.504;19.074;2022-12-24T16:02:54;100312.91;;;9.70;74.01
64792;BME280;51226;47.504;19.074;2022-12-24T16:06:04;100323.62;;;9.57;75.11
64792;BME280;51226;47.504;19.074;2022-12-24T16:12:33;100331.69;;;9.42;75.85
64792;BME280;51226;47.504;19.074;2022-12-24T16:15:43;100332.28;;;9.35;76.34
64792;BME280;51226;47.504;19.074;2022-12-24T16:18:54;100331.59;;;9.39;75.09
64792;BME280;51226;47.504;19.074;2022-12-24T16:22:00;100344.28;;;9.31;76.10
64792;BME280;51226;47.504;19.074;2022-12-24T16:25:27;100350.22;;;9.28;76.09
64792;BME280;51226;47.504;19.074;2022-12-24T16:28:30;100344.84;;;9.24;76.33
64792;BME280;51226;47.504;19.074;2022-12-24T16:31:52;100335.00;;;9.17;76.47
64792;BME280;51226;47.504;19.074;2022-12-24T16:34:55;100338.44;;;9.16;76.17
64792;BME280;51226;47.504;19.074;2022-12-24T16:37:59;100338.28;;;9.13;76.59
64792;BME280;51226;47.504;19.074;2022-12-24T16:41:02;100337.28;;;9.09;76.84
64792;BME280;51226;47.504;19.074;2022-12-24T16:44:05;100343.81;;;9.20;74.16
64792;BME280;51226;47.504;19.074;2022-12-24T16:47:20;100341.03;;;9.16;75.78
64792;BME280;51226;47.504;19.074;2022-12-24T16:50:25;100340.62;;;9.06;76.63
64792;BME280;51226;47.504;19.074;2022-12-24T16:53:28;100345.09;;;9.09;75.61
64792;BME280;51226;47.504;19.074;2022-12-24T16:56:31;100350.34;;;9.11;74.98
64792;BME280;51226;47.504;19.074;2022-12-24T16:59:35;100356.09;;;9.03;76.21
64792;BME280;51226;47.504;19.074;2022-12-24T17:02:39;100350.81;;;9.02;76.12
64792;BME280;51226;47.504;19.074;2022-12-24T17:05:43;100355.06;;;9.00;76.25
64792;BME280;51226;47.504;19.074;2022-12-24T17:08:48;100367.88;;;8.95;76.50
64792;BME280;51226;47.504;19.074;2022-12-24T17:11:50;100376.31;;;8.89;76.94
64792;BME280;51226;47.504;19.074;2022-12-24T17:14:53;100383.00;;;8.84;77.40
64792;BME280;51226;47.504;19.074;2022-12-24T17:17:56;100381.03;;;8.79;77.83
64792;BME280;51226;47.504;19.074;2022-12-24T17:21:00;100384.31;;;8.75;77.98
64792;BME280;51226;47.504;19.074;2022-12-24T17:24:06;100384.09;;;8.70;78.18
64792;BME280;51226;47.504;19.074;2022-12-24T17:27:10;100402.09;;;8.65;78.05
64792;BME280;51226;47.504;19.074;2022-12-24T17:30:14;100396.63;;;8.59;78.24
64792;BME280;51226;47.504;19.074;2022-12-24T17:33:18;100405.16;;;8.57;78.47
64792;BME280;51226;47.504;19.074;2022-12-24T17:36:22;100407.66;;;8.55;78.32
64792;BME280;51226;47.504;19.074;2022-12-24T17:39:28;100404.97;;;8.52;78.70
64792;BME280;51226;47.504;19.074;2022-12-24T17:42:31;100411.03;;;8.52;78.68
64792;BME280;51226;47.504;19.074;2022-12-24T17:45:39;100419.56;;;8.50;78.92
64792;BME280;51226;47.504;19.074;2022-12-24T17:48:43;100415.38;;;8.71;76.84
64792;BME280;51226;47.504;19.074;2022-12-24T17:51:50;100414.25;;;8.66;77.65
64792;BME280;51226;47.504;19.074;2022-12-24T17:54:52;100423.81;;;8.85;76.69